sensor_id;sensor_type;location;lat;lon;timestamp;temperature;humidity
316;DHT22;14128;48.686;9.738;2023-04-01T00:01:27;8.60;1.40
316;DHT22;14128;48.686;9.738;2023-04-01T00:03:54;8.60;1.40
316;DHT22;14128;48.686;9.738;2023-04-01T00:06:21;8.70;1.40
316;DHT22;14128;48.686;9.738;2023-04-01T00:08:50;8.70;1.40
316;DHT22;14128;48.686;9.738;2023-04-01T00:11:18;8.70;1.40
316;DHT22;14128;48.686;9.738;2023-04-01T00:13:45;8.70;1.40
316;DHT22;14128;48.686;9.738;2023-04-01T00:16:12;8.80;1.40
316;DHT22;14128;48.686;9.738;2023-04-01T00:18:39;8.80;1.40
316;DHT22;14128;48.686;9.738;2023-04-01T00:21:07;8.80;1.40
316;DHT22;14128;48.686;9.738;2023-04-01T00:23:34;8.70;1.40
316;DHT22;14128;48.686;9.738;2023-04-01T00:26:03;8.80;1.40
316;DHT22;14128;48.686;9.738;2023-04-01T00:28:30;8.90;1.40
316;DHT22;14128;48.686;9.738;2023-04-01T00:30:57;8.90;1.40
316;DHT22;14128;48.686;9.738;2023-04-01T00:33:24;8.90;1.40
316;DHT22;14128;48.686;9.738;2023-04-01T00:35:52;8.90;1.40
316;DHT22;14128;48.686;9.738;2023-04-01T00:38:19;8.90;1.40
316;DHT22;14128;48.686;9.738;2023-04-01T00:40:46;8.90;1.40
316;DHT22;14128;48.686;9.738;2023-04-01T00:43:16;9.00;1.40
316;DHT22;14128;48.686;9.738;2023-04-01T00:45:46;9.00;1.40
316;DHT22;14128;48.686;9.738;2023-04-01T00:48:15;8.80;1.40
316;DHT22;14128;48.686;9.738;2023-04-01T00:50:45;8.70;1.40
316;DHT22;14128;48.686;9.738;2023-04-01T00:53:16;8.70;1.40
316;DHT22;14128;48.686;9.738;2023-04-01T00:55:49;8.60;1.40
316;DHT22;14128;48.686;9.738;2023-04-01T00:58:21;8.50;1.40
316;DHT22;14128;48.686;9.738;2023-04-01T01:00:49;8.40;1.40
316;DHT22;14128;48.686;9.738;2023-04-01T01:03:17;8.40;1.40
316;DHT22;14128;48.686;9.738;2023-04-01T01:08:48;8.50;1.40
316;DHT22;14128;48.686;9.738;2023-04-01T01:11:20;8.70;1.40
316;DHT22;14128;48.686;9.738;2023-04-01T01:13:56;8.60;1.40
316;DHT22;14128;48.686;9.738;2023-04-01T01:16:26;8.70;1.40
316;DHT22;14128;48.686;9.738;2023-04-01T01:19:00;8.70;1.40
316;DHT22;14128;48.686;9.738;2023-04-01T01:21:48;8.70;1.40
316;DHT22;14128;48.686;9.738;2023-04-01T01:24:49;8.70;1.40
316;DHT22;14128;48.686;9.738;2023-04-01T01:27:20;8.70;1.40
316;DHT22;14128;48.686;9.738;2023-04-01T01:33:10;8.60;1.40
316;DHT22;14128;48.686;9.738;2023-04-01T01:35:44;8.60;1.40
316;DHT22;14128;48.686;9.738;2023-04-01T01:38:14;8.70;1.40
316;DHT22;14128;48.686;9.738;2023-04-01T01:40:44;8.60;1.40
316;DHT22;14128;48.686;9.738;2023-04-01T01:43:15;8.50;1.40
316;DHT22;14128;48.686;9.738;2023-04-01T01:45:47;8.50;1.40
316;DHT22;14128;48.686;9.738;2023-04-01T01:48:16;8.50;1.40
316;DHT22;14128;48.686;9.738;2023-04-01T01:50:46;8.40;1.40
316;DHT22;14128;48.686;9.738;2023-04-01T01:53:14;8.50;1.40
316;DHT22;14128;48.686;9.738;2023-04-01T01:55:43;8.40;1.40
316;DHT22;14128;48.686;9.738;2023-04-01T01:58:15;8.40;1.40
316;DHT22;14128;48.686;9.738;2023-04-01T02:00:44;8.20;1.40
316;DHT22;14128;48.686;9.738;2023-04-01T02:03:12;8.00;1.40
316;DHT22;14128;48.686;9.738;2023-04-01T02:05:40;8.10;1.40
316;DHT22;14128;48.686;9.738;2023-04-01T02:08:12;8.00;1.40
316;DHT22;14128;48.686;9.738;2023-04-01T02:10:42;8.10;1.40
316;DHT22;14128;48.686;9.738;2023-04-01T02:13:16;8.20;1.40
316;DHT22;14128;48.686;9.738;2023-04-01T02:15:46;8.30;1.40
316;DHT22;14128;48.686;9.738;2023-04-01T02:18:15;8.20;1.40
316;DHT22;14128;48.686;9.738;2023-04-01T02:20:43;8.10;1.40
316;DHT22;14128;48.686;9.738;2023-04-01T02:23:12;7.90;1.40
316;DHT22;14128;48.686;9.738;2023-04-01T02:25:41;8.00;1.40
316;DHT22;14128;48.686;9.738;2023-04-01T02:28:09;7.90;1.40
316;DHT22;14128;48.686;9.738;2023-04-01T02:30:38;7.80;1.40
316;DHT22;14128;48.686;9.738;2023-04-01T02:33:06;7.80;1.40
316;DHT22;14128;48.686;9.738;2023-04-01T02:35:34;7.70;1.40
316;DHT22;14128;48.686;9.738;2023-04-01T02:38:02;7.70;1.40
316;DHT22;14128;48.686;9.738;2023-04-01T02:40:41;7.70;1.40
316;DHT22;14128;48.686;9.738;2023-04-01T02:43:08;7.90;1.40
316;DHT22;14128;48.686;9.738;2023-04-01T02:45:35;7.90;1.40
316;DHT22;14128;48.686;9.738;2023-04-01T02:48:02;7.70;1.40
316;DHT22;14128;48.686;9.738;2023-04-01T02:50:29;7.70;1.40
316;DHT22;14128;48.686;9.738;2023-04-01T02:52:56;7.70;1.40
316;DHT22;14128;48.686;9.738;2023-04-01T02:55:23;7.90;1.40
316;DHT22;14128;48.686;9.738;2023-04-01T02:57:51;7.90;1.40
316;DHT22;14128;48.686;9.738;2023-04-01T03:00:18;7.70;1.40
316;DHT22;14128;48.686;9.738;2023-04-01T03:02:45;7.70;1.40
316;DHT22;14128;48.686;9.738;2023-04-01T03:05:11;7.80;1.40
316;DHT22;14128;48.686;9.738;2023-04-01T03:07:38;8.00;1.40
316;DHT22;14128;48.686;9.738;2023-04-01T03:10:06;8.00;1.40
316;DHT22;14128;48.686;9.738;2023-04-01T03:12:33;7.90;1.40
316;DHT22;14128;48.686;9.738;2023-04-01T03:15:02;7.80;1.40
316;DHT22;14128;48.686;9.738;2023-04-01T03:17:29;7.60;1.40
316;DHT22;14128;48.686;9.738;2023-04-01T03:19:56;7.50;1.40
316;DHT22;14128;48.686;9.738;2023-04-01T03:22:23;7.40;1.40
316;DHT22;14128;48.686;9.738;2023-04-01T03:24:50;7.40;1.40
316;DHT22;14128;48.686;9.738;2023-04-01T03:27:17;7.30;1.40
316;DHT22;14128;48.686;9.738;2023-04-01T03:29:43;7.10;1.40
316;DHT22;14128;48.686;9.738;2023-04-01T03:32:12;7.20;1.40
316;DHT22;14128;48.686;9.738;2023-04-01T03:34:39;7.40;1.40
316;DHT22;14128;48.686;9.738;2023-04-01T03:37:05;7.40;1.40
316;DHT22;14128;48.686;9.738;2023-04-01T03:39:32;7.40;1.40
316;DHT22;14128;48.686;9.738;2023-04-01T03:42:00;7.50;1.40
316;DHT22;14128;48.686;9.738;2023-04-01T03:44:30;7.60;1.40
316;DHT22;14128;48.686;9.738;2023-04-01T03:46:57;7.70;1.40
316;DHT22;14128;48.686;9.738;2023-04-01T03:49:25;7.60;1.40
316;DHT22;14128;48.686;9.738;2023-04-01T03:51:52;7.60;1.40
316;DHT22;14128;48.686;9.738;2023-04-01T03:54:19;7.50;1.40
316;DHT22;14128;48.686;9.738;2023-04-01T03:56:46;7.60;1.40
316;DHT22;14128;48.686;9.738;2023-04-01T03:59:13;7.80;1.40
316;DHT22;14128;48.686;9.738;2023-04-01T04:01:40;8.00;1.40
316;DHT22;14128;48.686;9.738;2023-04-01T04:04:07;8.20;1.40
316;DHT22;14128;48.686;9.738;2023-04-01T04:06:35;8.20;1.40
316;DHT22;14128;48.686;9.738;2023-04-01T04:09:02;8.10;1.40
316;DHT22;14128;48.686;9.738;2023-04-01T04:11:30;8.20;1.40
316;DHT22;14128;48.686;9.738;2023-04-01T04:13:57;8.20;1.40
316;DHT22;14128;48.686;9.738;2023-04-01T04:16:24;8.30;1.40
316;DHT22;14128;48.686;9.738;2023-04-01T04:18:51;8.30;1.40
316;DHT22;14128;48.686;9.738;2023-04-01T04:21:17;8.30;1.40
316;DHT22;14128;48.686;9.738;2023-04-01T04:23:45;8.10;1.40
316;DHT22;14128;48.686;9.738;2023-04-01T04:26:14;8.10;1.40
316;DHT22;14128;48.686;9.738;2023-04-01T04:28:41;8.20;1.40
316;DHT22;14128;48.686;9.738;2023-04-01T04:31:07;8.20;1.40
316;DHT22;14128;48.686;9.738;2023-04-01T04:33:34;8.20;1.40
316;DHT22;14128;48.686;9.738;2023-04-01T04:36:02;8.10;1.40
316;DHT22;14128;48.686;9.738;2023-04-01T04:38:29;7.80;1.40
316;DHT22;14128;48.686;9.738;2023-04-01T04:40:58;7.80;1.40
316;DHT22;14128;48.686;9.738;2023-04-01T04:43:25;7.60;1.40
316;DHT22;14128;48.686;9.738;2023-04-01T04:45:51;7.60;1.40
316;DHT22;14128;48.686;9.738;2023-04-01T04:48:18;7.70;1.40
316;DHT22;14128;48.686;9.738;2023-04-01T04:50:46;7.80;1.40
316;DHT22;14128;48.686;9.738;2023-04-01T04:53:14;7.80;1.40
316;DHT22;14128;48.686;9.738;2023-04-01T04:55:43;7.80;1.40
316;DHT22;14128;48.686;9.738;2023-04-01T04:58:13;7.80;1.40
316;DHT22;14128;48.686;9.738;2023-04-01T05:00:40;7.80;1.40
316;DHT22;14128;48.686;9.738;2023-04-01T05:03:07;7.80;1.40
316;DHT22;14128;48.686;9.738;2023-04-01T05:05:34;7.90;1.40
316;DHT22;14128;48.686;9.738;2023-04-01T05:08:01;7.90;1.40
316;DHT22;14128;48.686;9.738;2023-04-01T05:10:28;7.80;1.40
316;DHT22;14128;48.686;9.738;2023-04-01T05:12:55;7.80;1.40
316;DHT22;14128;48.686;9.738;2023-04-01T05:15:23;7.70;1.40
316;DHT22;14128;48.686;9.738;2023-04-01T05:17:50;7.90;1.40
316;DHT22;14128;48.686;9.738;2023-04-01T05:20:17;8.00;1.40
316;DHT22;14128;48.686;9.738;2023-04-01T05:22:43;8.10;1.40
316;DHT22;14128;48.686;9.738;2023-04-01T05:25:10;8.10;1.40
316;DHT22;14128;48.686;9.738;2023-04-01T05:27:37;8.30;1.40
316;DHT22;14128;48.686;9.738;2023-04-01T05:30:05;8.60;1.40
316;DHT22;14128;48.686;9.738;2023-04-01T05:32:33;8.70;1.40
316;DHT22;14128;48.686;9.738;2023-04-01T05:35:00;8.70;1.40
316;DHT22;14128;48.686;9.738;2023-04-01T05:37:27;8.80;1.40
316;DHT22;14128;48.686;9.738;2023-04-01T05:39:54;9.00;1.40
316;DHT22;14128;48.686;9.738;2023-04-01T05:42:20;9.10;1.40
316;DHT22;14128;48.686;9.738;2023-04-01T05:44:47;9.10;1.40
316;DHT22;14128;48.686;9.738;2023-04-01T05:47:14;9.20;1.40
316;DHT22;14128;48.686;9.738;2023-04-01T05:49:42;9.20;1.40
316;DHT22;14128;48.686;9.738;2023-04-01T05:52:09;9.20;1.40
316;DHT22;14128;48.686;9.738;2023-04-01T05:54:36;9.30;1.40
316;DHT22;14128;48.686;9.738;2023-04-01T05:57:03;9.30;1.40
316;DHT22;14128;48.686;9.738;2023-04-01T05:59:29;9.40;1.40
316;DHT22;14128;48.686;9.738;2023-04-01T06:01:57;9.40;1.40
316;DHT22;14128;48.686;9.738;2023-04-01T06:04:24;9.50;1.40
316;DHT22;14128;48.686;9.738;2023-04-01T06:06:53;9.50;1.40
316;DHT22;14128;48.686;9.738;2023-04-01T06:09:24;9.50;1.40
316;DHT22;14128;48.686;9.738;2023-04-01T06:12:18;9.60;1.40
316;DHT22;14128;48.686;9.738;2023-04-01T06:14:52;9.50;1.40
316;DHT22;14128;48.686;9.738;2023-04-01T06:17:27;9.50;1.40
316;DHT22;14128;48.686;9.738;2023-04-01T06:20:03;9.40;1.40
316;DHT22;14128;48.686;9.738;2023-04-01T06:22:54;9.40;1.40
316;DHT22;14128;48.686;9.738;2023-04-01T06:25:42;9.50;1.40
316;DHT22;14128;48.686;9.738;2023-04-01T06:28:36;9.60;1.40
316;DHT22;14128;48.686;9.738;2023-04-01T06:31:11;9.60;1.40
316;DHT22;14128;48.686;9.738;2023-04-01T06:34:02;9.70;1.40
316;DHT22;14128;48.686;9.738;2023-04-01T06:42:34;10.00;1.40
316;DHT22;14128;48.686;9.738;2023-04-01T06:45:12;10.10;1.40
316;DHT22;14128;48.686;9.738;2023-04-01T06:47:54;10.10;1.40
316;DHT22;14128;48.686;9.738;2023-04-01T06:50:27;10.20;1.40
316;DHT22;14128;48.686;9.738;2023-04-01T06:53:00;10.30;1.40
316;DHT22;14128;48.686;9.738;2023-04-01T06:55:34;10.50;1.40
316;DHT22;14128;48.686;9.738;2023-04-01T06:58:09;10.50;1.40
316;DHT22;14128;48.686;9.738;2023-04-01T07:00:39;10.60;1.40
316;DHT22;14128;48.686;9.738;2023-04-01T07:03:16;10.70;1.40
316;DHT22;14128;48.686;9.738;2023-04-01T07:05:45;10.80;1.40
316;DHT22;14128;48.686;9.738;2023-04-01T07:08:15;10.90;1.40
316;DHT22;14128;48.686;9.738;2023-04-01T07:10:47;11.00;1.40
316;DHT22;14128;48.686;9.738;2023-04-01T07:13:20;11.00;1.40
316;DHT22;14128;48.686;9.738;2023-04-01T07:15:55;11.00;1.40
316;DHT22;14128;48.686;9.738;2023-04-01T07:18:30;11.10;1.40
316;DHT22;14128;48.686;9.738;2023-04-01T07:20:59;11.20;1.40
316;DHT22;14128;48.686;9.738;2023-04-01T07:23:28;11.10;1.40
316;DHT22;14128;48.686;9.738;2023-04-01T07:26:00;11.10;1.40
316;DHT22;14128;48.686;9.738;2023-04-01T07:28:31;11.10;1.40
316;DHT22;14128;48.686;9.738;2023-04-01T07:31:09;11.10;1.40
316;DHT22;14128;48.686;9.738;2023-04-01T07:33:43;11.00;1.40
316;DHT22;14128;48.686;9.738;2023-04-01T07:36:20;11.00;1.40
316;DHT22;14128;48.686;9.738;2023-04-01T07:38:58;11.10;1.40
316;DHT22;14128;48.686;9.738;2023-04-01T07:41:32;11.10;1.40
316;DHT22;14128;48.686;9.738;2023-04-01T07:44:13;11.10;1.40
316;DHT22;14128;48.686;9.738;2023-04-01T07:46:52;11.30;1.40
316;DHT22;14128;48.686;9.738;2023-04-01T07:49:25;11.30;1.40
316;DHT22;14128;48.686;9.738;2023-04-01T07:52:00;11.30;1.40
316;DHT22;14128;48.686;9.738;2023-04-01T07:54:35;11.30;1.40
316;DHT22;14128;48.686;9.738;2023-04-01T07:57:10;11.50;1.40
316;DHT22;14128;48.686;9.738;2023-04-01T07:59:45;11.70;1.40
316;DHT22;14128;48.686;9.738;2023-04-01T08:02:28;11.70;1.40
316;DHT22;14128;48.686;9.738;2023-04-01T08:05:04;11.70;1.40
316;DHT22;14128;48.686;9.738;2023-04-01T08:07:40;11.50;1.40
316;DHT22;14128;48.686;9.738;2023-04-01T08:10:15;11.60;1.40
316;DHT22;14128;48.686;9.738;2023-04-01T08:12:50;11.50;1.40
316;DHT22;14128;48.686;9.738;2023-04-01T08:15:24;11.50;1.40
316;DHT22;14128;48.686;9.738;2023-04-01T08:18:07;11.60;1.40
316;DHT22;14128;48.686;9.738;2023-04-01T08:20:41;11.60;1.40
316;DHT22;14128;48.686;9.738;2023-04-01T08:23:13;11.50;1.40
316;DHT22;14128;48.686;9.738;2023-04-01T08:25:44;11.50;1.40
316;DHT22;14128;48.686;9.738;2023-04-01T08:28:17;11.50;1.40
316;DHT22;14128;48.686;9.738;2023-04-01T08:30:50;11.50;1.40
316;DHT22;14128;48.686;9.738;2023-04-01T08:33:21;11.50;1.40
316;DHT22;14128;48.686;9.738;2023-04-01T08:35:52;11.40;1.40
316;DHT22;14128;48.686;9.738;2023-04-01T08:38:25;11.30;1.40
316;DHT22;14128;48.686;9.738;2023-04-01T08:41:01;11.30;1.40
316;DHT22;14128;48.686;9.738;2023-04-01T08:43:55;11.30;1.40
316;DHT22;14128;48.686;9.738;2023-04-01T08:49:37;11.30;1.40
316;DHT22;14128;48.686;9.738;2023-04-01T08:52:29;11.20;1.40
316;DHT22;14128;48.686;9.738;2023-04-01T08:55:27;11.10;1.40
316;DHT22;14128;48.686;9.738;2023-04-01T08:58:18;11.10;1.40
316;DHT22;14128;48.686;9.738;2023-04-01T09:00:53;11.20;1.40
316;DHT22;14128;48.686;9.738;2023-04-01T09:03:43;11.10;1.40
316;DHT22;14128;48.686;9.738;2023-04-01T09:06:33;11.30;1.40
316;DHT22;14128;48.686;9.738;2023-04-01T09:09:23;11.30;1.40
316;DHT22;14128;48.686;9.738;2023-04-01T09:15:24;11.30;1.40
316;DHT22;14128;48.686;9.738;2023-04-01T09:21:17;11.60;1.40
316;DHT22;14128;48.686;9.738;2023-04-01T09:24:09;11.80;1.40
316;DHT22;14128;48.686;9.738;2023-04-01T09:27:00;11.70;1.40
316;DHT22;14128;48.686;9.738;2023-04-01T09:30:00;10.90;1.40
316;DHT22;14128;48.686;9.738;2023-04-01T09:32:58;10.80;1.40
316;DHT22;14128;48.686;9.738;2023-04-01T09:35:39;10.60;1.40
316;DHT22;14128;48.686;9.738;2023-04-01T09:38:21;10.40;1.40
316;DHT22;14128;48.686;9.738;2023-04-01T09:40:55;10.00;1.40
316;DHT22;14128;48.686;9.738;2023-04-01T09:43:33;9.90;1.40
316;DHT22;14128;48.686;9.738;2023-04-01T09:46:11;9.60;1.40
316;DHT22;14128;48.686;9.738;2023-04-01T09:49:16;9.30;1.40
316;DHT22;14128;48.686;9.738;2023-04-01T09:51:55;9.30;1.40
316;DHT22;14128;48.686;9.738;2023-04-01T09:54:36;9.20;1.40
316;DHT22;14128;48.686;9.738;2023-04-01T09:57:22;9.30;1.40
316;DHT22;14128;48.686;9.738;2023-04-01T10:03:32;9.60;1.40
316;DHT22;14128;48.686;9.738;2023-04-01T10:12:46;9.80;1.40
316;DHT22;14128;48.686;9.738;2023-04-01T10:15:46;9.70;1.40
316;DHT22;14128;48.686;9.738;2023-04-01T10:18:47;9.90;1.40
316;DHT22;14128;48.686;9.738;2023-04-01T10:21:42;10.00;1.40
316;DHT22;14128;48.686;9.738;2023-04-01T10:30:51;9.80;1.40
316;DHT22;14128;48.686;9.738;2023-04-01T10:34:04;9.80;1.40
316;DHT22;14128;48.686;9.738;2023-04-01T10:36:52;9.90;1.40
316;DHT22;14128;48.686;9.738;2023-04-01T10:40:00;10.10;1.40
316;DHT22;14128;48.686;9.738;2023-04-01T10:43:05;9.90;1.40
316;DHT22;14128;48.686;9.738;2023-04-01T10:45:59;9.90;1.40
316;DHT22;14128;48.686;9.738;2023-04-01T10:54:40;10.10;1.40
316;DHT22;14128;48.686;9.738;2023-04-01T11:00:23;9.60;1.40
316;DHT22;14128;48.686;9.738;2023-04-01T11:03:26;9.60;1.40
316;DHT22;14128;48.686;9.738;2023-04-01T11:06:34;9.70;1.40
316;DHT22;14128;48.686;9.738;2023-04-01T11:09:34;9.70;1.40
316;DHT22;14128;48.686;9.738;2023-04-01T11:12:33;9.50;1.40
316;DHT22;14128;48.686;9.738;2023-04-01T11:15:26;9.80;1.40
316;DHT22;14128;48.686;9.738;2023-04-01T11:18:35;10.10;1.40
316;DHT22;14128;48.686;9.738;2023-04-01T11:21:37;10.20;1.40
316;DHT22;14128;48.686;9.738;2023-04-01T11:24:41;10.30;1.40
316;DHT22;14128;48.686;9.738;2023-04-01T11:27:25;10.20;1.40
316;DHT22;14128;48.686;9.738;2023-04-01T11:30:11;10.40;1.40
316;DHT22;14128;48.686;9.738;2023-04-01T11:32:52;10.10;1.40
316;DHT22;14128;48.686;9.738;2023-04-01T11:35:54;10.10;1.40
316;DHT22;14128;48.686;9.738;2023-04-01T11:38:34;10.30;1.40
316;DHT22;14128;48.686;9.738;2023-04-01T11:41:14;10.00;1.40
316;DHT22;14128;48.686;9.738;2023-04-01T11:44:01;10.10;1.40
316;DHT22;14128;48.686;9.738;2023-04-01T11:46:36;10.00;1.40
316;DHT22;14128;48.686;9.738;2023-04-01T11:49:11;10.20;1.40
316;DHT22;14128;48.686;9.738;2023-04-01T11:52:13;10.00;1.40
316;DHT22;14128;48.686;9.738;2023-04-01T12:01:01;9.90;1.40
316;DHT22;14128;48.686;9.738;2023-04-01T12:03:54;10.00;1.40
316;DHT22;14128;48.686;9.738;2023-04-01T12:06:33;10.10;1.40
316;DHT22;14128;48.686;9.738;2023-04-01T12:09:11;10.10;1.40
316;DHT22;14128;48.686;9.738;2023-04-01T12:11:48;10.10;1.40
316;DHT22;14128;48.686;9.738;2023-04-01T12:14:22;10.20;1.40
316;DHT22;14128;48.686;9.738;2023-04-01T12:16:59;10.30;1.40
316;DHT22;14128;48.686;9.738;2023-04-01T12:19:36;10.40;1.40
316;DHT22;14128;48.686;9.738;2023-04-01T12:22:23;10.60;1.40
316;DHT22;14128;48.686;9.738;2023-04-01T12:25:00;10.60;1.40
316;DHT22;14128;48.686;9.738;2023-04-01T12:27:41;11.10;1.40
316;DHT22;14128;48.686;9.738;2023-04-01T12:30:30;11.40;1.40
316;DHT22;14128;48.686;9.738;2023-04-01T12:33:15;11.40;1.40
316;DHT22;14128;48.686;9.738;2023-04-01T12:35:55;11.60;1.40
316;DHT22;14128;48.686;9.738;2023-04-01T12:38:35;11.50;1.40
316;DHT22;14128;48.686;9.738;2023-04-01T12:41:09;11.10;1.40
316;DHT22;14128;48.686;9.738;2023-04-01T12:46:56;10.50;1.40
316;DHT22;14128;48.686;9.738;2023-04-01T12:49:48;10.20;1.40
316;DHT22;14128;48.686;9.738;2023-04-01T12:52:26;9.70;1.40
316;DHT22;14128;48.686;9.738;2023-04-01T12:55:20;9.70;1.40
316;DHT22;14128;48.686;9.738;2023-04-01T13:04:06;9.50;1.40
316;DHT22;14128;48.686;9.738;2023-04-01T13:06:49;9.60;1.40
316;DHT22;14128;48.686;9.738;2023-04-01T13:09:28;9.60;1.40
316;DHT22;14128;48.686;9.738;2023-04-01T13:15:20;9.90;1.40
316;DHT22;14128;48.686;9.738;2023-04-01T13:17:53;10.10;1.40
316;DHT22;14128;48.686;9.738;2023-04-01T13:20:33;10.10;1.40
316;DHT22;14128;48.686;9.738;2023-04-01T13:23:11;10.30;1.40
316;DHT22;14128;48.686;9.738;2023-04-01T13:25:46;10.70;1.40
316;DHT22;14128;48.686;9.738;2023-04-01T13:28:18;10.70;1.40
316;DHT22;14128;48.686;9.738;2023-04-01T13:30:55;11.00;1.40
316;DHT22;14128;48.686;9.738;2023-04-01T13:33:30;11.30;1.40
316;DHT22;14128;48.686;9.738;2023-04-01T13:36:13;11.10;1.40
316;DHT22;14128;48.686;9.738;2023-04-01T13:39:11;11.10;1.40
316;DHT22;14128;48.686;9.738;2023-04-01T13:41:51;11.00;1.40
316;DHT22;14128;48.686;9.738;2023-04-01T13:44:29;10.80;1.40
316;DHT22;14128;48.686;9.738;2023-04-01T13:47:12;10.70;1.40
316;DHT22;14128;48.686;9.738;2023-04-01T13:50:03;10.70;1.40
316;DHT22;14128;48.686;9.738;2023-04-01T13:52:44;10.60;1.40
316;DHT22;14128;48.686;9.738;2023-04-01T13:55:34;10.90;1.40
316;DHT22;14128;48.686;9.738;2023-04-01T13:58:19;11.10;1.40
316;DHT22;14128;48.686;9.738;2023-04-01T14:00:55;11.30;1.40
316;DHT22;14128;48.686;9.738;2023-04-01T14:04:00;11.10;1.40
316;DHT22;14128;48.686;9.738;2023-04-01T14:06:38;11.00;1.40
316;DHT22;14128;48.686;9.738;2023-04-01T14:09:40;11.10;1.40
316;DHT22;14128;48.686;9.738;2023-04-01T14:12:13;11.30;1.40
316;DHT22;14128;48.686;9.738;2023-04-01T14:14:54;11.60;1.40
316;DHT22;14128;48.686;9.738;2023-04-01T14:17:37;11.50;1.40
316;DHT22;14128;48.686;9.738;2023-04-01T14:20:25;11.40;1.40
316;DHT22;14128;48.686;9.738;2023-04-01T14:23:07;11.80;1.40
316;DHT22;14128;48.686;9.738;2023-04-01T14:25:48;12.00;1.40
316;DHT22;14128;48.686;9.738;2023-04-01T14:28:28;12.10;1.40
316;DHT22;14128;48.686;9.738;2023-04-01T14:34:16;11.80;1.40
316;DHT22;14128;48.686;9.738;2023-04-01T14:37:03;11.70;1.40
316;DHT22;14128;48.686;9.738;2023-04-01T14:39:48;11.70;1.40
316;DHT22;14128;48.686;9.738;2023-04-01T14:42:38;11.80;1.40
316;DHT22;14128;48.686;9.738;2023-04-01T14:45:32;11.90;1.40
316;DHT22;14128;48.686;9.738;2023-04-01T14:48:13;12.00;1.40
316;DHT22;14128;48.686;9.738;2023-04-01T14:50:45;12.20;1.40
316;DHT22;14128;48.686;9.738;2023-04-01T14:53:26;12.10;1.40
316;DHT22;14128;48.686;9.738;2023-04-01T14:55:56;12.30;1.40
316;DHT22;14128;48.686;9.738;2023-04-01T14:58:40;12.00;1.40
316;DHT22;14128;48.686;9.738;2023-04-01T15:01:18;12.10;1.40
316;DHT22;14128;48.686;9.738;2023-04-01T15:03:55;11.90;1.40
316;DHT22;14128;48.686;9.738;2023-04-01T15:06:40;11.80;1.40
316;DHT22;14128;48.686;9.738;2023-04-01T15:09:23;11.90;1.40
316;DHT22;14128;48.686;9.738;2023-04-01T15:11:58;11.80;1.40
316;DHT22;14128;48.686;9.738;2023-04-01T15:14:55;11.70;1.40
316;DHT22;14128;48.686;9.738;2023-04-01T15:17:35;11.50;1.40
316;DHT22;14128;48.686;9.738;2023-04-01T15:20:28;11.40;1.40
316;DHT22;14128;48.686;9.738;2023-04-01T15:23:06;11.20;1.40
316;DHT22;14128;48.686;9.738;2023-04-01T15:25:45;11.20;1.40
316;DHT22;14128;48.686;9.738;2023-04-01T15:28:25;11.00;1.40
316;DHT22;14128;48.686;9.738;2023-04-01T15:30:58;11.00;1.40
316;DHT22;14128;48.686;9.738;2023-04-01T15:36:30;10.80;1.40
316;DHT22;14128;48.686;9.738;2023-04-01T15:39:09;10.70;1.40
316;DHT22;14128;48.686;9.738;2023-04-01T15:41:46;10.70;1.40
316;DHT22;14128;48.686;9.738;2023-04-01T15:44:42;10.70;1.40
316;DHT22;14128;48.686;9.738;2023-04-01T15:47:31;10.70;1.40
316;DHT22;14128;48.686;9.738;2023-04-01T15:52:56;10.60;1.40
316;DHT22;14128;48.686;9.738;2023-04-01T15:55:31;10.60;1.40
316;DHT22;14128;48.686;9.738;2023-04-01T15:58:24;10.50;1.40
316;DHT22;14128;48.686;9.738;2023-04-01T16:01:02;10.50;1.40
316;DHT22;14128;48.686;9.738;2023-04-01T16:03:37;10.50;1.40
316;DHT22;14128;48.686;9.738;2023-04-01T16:06:28;10.50;1.40
316;DHT22;14128;48.686;9.738;2023-04-01T16:09:13;10.50;1.40
316;DHT22;14128;48.686;9.738;2023-04-01T16:11:50;10.40;1.40
316;DHT22;14128;48.686;9.738;2023-04-01T16:14:31;10.40;1.40
316;DHT22;14128;48.686;9.738;2023-04-01T16:17:17;10.50;1.40
316;DHT22;14128;48.686;9.738;2023-04-01T16:19:52;10.40;1.40
316;DHT22;14128;48.686;9.738;2023-04-01T16:22:23;10.40;1.40
316;DHT22;14128;48.686;9.738;2023-04-01T16:25:07;10.40;1.40
316;DHT22;14128;48.686;9.738;2023-04-01T16:27:44;10.50;1.40
316;DHT22;14128;48.686;9.738;2023-04-01T16:30:26;10.50;1.40
316;DHT22;14128;48.686;9.738;2023-04-01T16:33:02;10.40;1.40
316;DHT22;14128;48.686;9.738;2023-04-01T16:35:39;10.40;1.40
316;DHT22;14128;48.686;9.738;2023-04-01T16:38:13;10.40;1.40
316;DHT22;14128;48.686;9.738;2023-04-01T16:40:47;10.40;1.40
316;DHT22;14128;48.686;9.738;2023-04-01T16:43:21;10.50;1.40
316;DHT22;14128;48.686;9.738;2023-04-01T16:46:25;10.40;1.40
316;DHT22;14128;48.686;9.738;2023-04-01T16:49:00;10.40;1.40
316;DHT22;14128;48.686;9.738;2023-04-01T16:51:37;10.40;1.40
316;DHT22;14128;48.686;9.738;2023-04-01T16:54:15;10.30;1.40
316;DHT22;14128;48.686;9.738;2023-04-01T16:56:45;10.30;1.40
316;DHT22;14128;48.686;9.738;2023-04-01T16:59:19;10.30;1.40
316;DHT22;14128;48.686;9.738;2023-04-01T17:01:52;10.30;1.40
316;DHT22;14128;48.686;9.738;2023-04-01T17:04:29;10.30;1.40
316;DHT22;14128;48.686;9.738;2023-04-01T17:07:05;10.20;1.40
316;DHT22;14128;48.686;9.738;2023-04-01T17:09:42;10.20;1.40
316;DHT22;14128;48.686;9.738;2023-04-01T17:12:16;10.20;1.40
316;DHT22;14128;48.686;9.738;2023-04-01T17:14:52;10.20;1.40
316;DHT22;14128;48.686;9.738;2023-04-01T17:17:29;10.20;1.40
316;DHT22;14128;48.686;9.738;2023-04-01T17:20:28;10.10;1.40
316;DHT22;14128;48.686;9.738;2023-04-01T17:23:01;10.10;1.40
316;DHT22;14128;48.686;9.738;2023-04-01T17:25:46;10.00;1.40
316;DHT22;14128;48.686;9.738;2023-04-01T17:28:24;10.00;1.40
316;DHT22;14128;48.686;9.738;2023-04-01T17:30:57;9.90;1.40
316;DHT22;14128;48.686;9.738;2023-04-01T17:33:45;9.90;1.40
316;DHT22;14128;48.686;9.738;2023-04-01T17:36:23;9.80;1.40
316;DHT22;14128;48.686;9.738;2023-04-01T17:39:07;9.70;1.40
316;DHT22;14128;48.686;9.738;2023-04-01T17:41:45;9.70;1.40
316;DHT22;14128;48.686;9.738;2023-04-01T17:44:25;9.60;1.40
316;DHT22;14128;48.686;9.738;2023-04-01T17:47:06;9.60;1.40
316;DHT22;14128;48.686;9.738;2023-04-01T17:49:45;9.60;1.40
316;DHT22;14128;48.686;9.738;2023-04-01T17:52:21;9.50;1.40
316;DHT22;14128;48.686;9.738;2023-04-01T17:54:53;9.50;1.40
316;DHT22;14128;48.686;9.738;2023-04-01T17:57:45;9.50;1.40
316;DHT22;14128;48.686;9.738;2023-04-01T18:00:19;9.50;1.40
316;DHT22;14128;48.686;9.738;2023-04-01T18:03:00;9.50;1.40
316;DHT22;14128;48.686;9.738;2023-04-01T18:05:39;9.50;1.40
316;DHT22;14128;48.686;9.738;2023-04-01T18:08:26;9.50;1.40
316;DHT22;14128;48.686;9.738;2023-04-01T18:11:05;9.50;1.40
316;DHT22;14128;48.686;9.738;2023-04-01T18:13:51;9.40;1.40
316;DHT22;14128;48.686;9.738;2023-04-01T18:16:30;9.50;1.40
316;DHT22;14128;48.686;9.738;2023-04-01T18:19:11;9.50;1.40
316;DHT22;14128;48.686;9.738;2023-04-01T18:21:45;9.50;1.40
316;DHT22;14128;48.686;9.738;2023-04-01T18:24:20;9.50;1.40
316;DHT22;14128;48.686;9.738;2023-04-01T18:26:50;9.50;1.40
316;DHT22;14128;48.686;9.738;2023-04-01T18:29:33;9.60;1.40
316;DHT22;14128;48.686;9.738;2023-04-01T18:32:12;9.50;1.40
316;DHT22;14128;48.686;9.738;2023-04-01T18:34:52;9.50;1.40
316;DHT22;14128;48.686;9.738;2023-04-01T18:37:25;9.40;1.40
316;DHT22;14128;48.686;9.738;2023-04-01T18:39:57;9.40;1.40
316;DHT22;14128;48.686;9.738;2023-04-01T18:42:33;9.40;1.40
316;DHT22;14128;48.686;9.738;2023-04-01T18:45:17;9.40;1.40